sensor_id;sensor_type;location;lat;lon;timestamp;P1;durP1;ratioP1;P2;durP2;ratioP2
10705;SDS011;5404;42.656;23.336;2023-04-24T00:00:19;19.48;;;11.27;;
10705;SDS011;5404;42.656;23.336;2023-04-24T00:02:47;18.08;;;11.07;;
10705;SDS011;5404;42.656;23.336;2023-04-24T00:05:13;18.80;;;11.80;;
10705;SDS011;5404;42.656;23.336;2023-04-24T00:07:41;25.00;;;11.30;;
10705;SDS011;5404;42.656;23.336;2023-04-24T00:10:07;26.40;;;11.65;;
10705;SDS011;5404;42.656;23.336;2023-04-24T00:12:33;18.05;;;10.93;;
10705;SDS011;5404;42.656;23.336;2023-04-24T00:14:59;24.17;;;9.70;;
10705;SDS011;5404;42.656;23.336;2023-04-24T00:17:24;18.73;;;10.63;;
10705;SDS011;5404;42.656;23.336;2023-04-24T00:19:50;20.73;;;10.60;;
10705;SDS011;5404;42.656;23.336;2023-04-24T00:22:16;17.88;;;10.82;;
10705;SDS011;5404;42.656;23.336;2023-04-24T00:24:42;18.33;;;9.90;;
10705;SDS011;5404;42.656;23.336;2023-04-24T00:27:08;19.58;;;11.68;;
10705;SDS011;5404;42.656;23.336;2023-04-24T00:29:34;23.08;;;13.38;;
10705;SDS011;5404;42.656;23.336;2023-04-24T00:32:00;20.52;;;12.60;;
10705;SDS011;5404;42.656;23.336;2023-04-24T00:34:25;24.85;;;12.10;;
10705;SDS011;5404;42.656;23.336;2023-04-24T00:36:51;24.85;;;11.32;;
10705;SDS011;5404;42.656;23.336;2023-04-24T00:39:19;27.65;;;11.15;;
10705;SDS011;5404;42.656;23.336;2023-04-24T00:41:48;21.17;;;11.35;;
10705;SDS011;5404;42.656;23.336;2023-04-24T00:44:14;21.42;;;11.23;;
10705;SDS011;5404;42.656;23.336;2023-04-24T00:46:40;22.13;;;11.93;;
10705;SDS011;5404;42.656;23.336;2023-04-24T00:49:06;26.15;;;11.73;;
10705;SDS011;5404;42.656;23.336;2023-04-24T00:51:32;16.77;;;10.70;;
10705;SDS011;5404;42.656;23.336;2023-04-24T00:53:58;18.75;;;10.18;;
10705;SDS011;5404;42.656;23.336;2023-04-24T00:56:24;19.35;;;9.07;;
10705;SDS011;5404;42.656;23.336;2023-04-24T00:58:50;18.95;;;10.45;;
10705;SDS011;5404;42.656;23.336;2023-04-24T01:01:16;17.05;;;9.88;;
10705;SDS011;5404;42.656;23.336;2023-04-24T01:03:43;18.33;;;10.05;;
10705;SDS011;5404;42.656;23.336;2023-04-24T01:06:09;20.98;;;10.25;;
10705;SDS011;5404;42.656;23.336;2023-04-24T01:08:35;17.95;;;11.13;;
10705;SDS011;5404;42.656;23.336;2023-04-24T01:11:03;24.92;;;11.32;;
10705;SDS011;5404;42.656;23.336;2023-04-24T01:13:29;22.58;;;11.70;;
10705;SDS011;5404;42.656;23.336;2023-04-24T01:15:57;20.27;;;12.02;;
10705;SDS011;5404;42.656;23.336;2023-04-24T01:18:22;16.40;;;11.20;;
10705;SDS011;5404;42.656;23.336;2023-04-24T01:20:48;24.20;;;9.98;;
10705;SDS011;5404;42.656;23.336;2023-04-24T01:23:15;17.55;;;9.10;;
10705;SDS011;5404;42.656;23.336;2023-04-24T01:25:42;15.35;;;7.90;;
10705;SDS011;5404;42.656;23.336;2023-04-24T01:28:08;14.00;;;9.40;;
10705;SDS011;5404;42.656;23.336;2023-04-24T01:30:34;15.90;;;8.65;;
10705;SDS011;5404;42.656;23.336;2023-04-24T01:32:59;15.18;;;8.27;;
10705;SDS011;5404;42.656;23.336;2023-04-24T01:35:25;18.75;;;10.25;;
10705;SDS011;5404;42.656;23.336;2023-04-24T01:37:54;11.48;;;7.95;;
10705;SDS011;5404;42.656;23.336;2023-04-24T01:40:19;17.15;;;8.27;;
10705;SDS011;5404;42.656;23.336;2023-04-24T01:42:45;18.23;;;7.90;;
10705;SDS011;5404;42.656;23.336;2023-04-24T01:45:12;24.85;;;8.77;;
10705;SDS011;5404;42.656;23.336;2023-04-24T01:47:40;18.98;;;9.32;;
10705;SDS011;5404;42.656;23.336;2023-04-24T01:50:06;13.23;;;8.93;;
10705;SDS011;5404;42.656;23.336;2023-04-24T01:52:32;18.52;;;9.30;;
10705;SDS011;5404;42.656;23.336;2023-04-24T01:55:02;15.38;;;10.10;;
10705;SDS011;5404;42.656;23.336;2023-04-24T01:57:29;16.88;;;9.60;;
10705;SDS011;5404;42.656;23.336;2023-04-24T01:59:55;20.73;;;9.45;;
10705;SDS011;5404;42.656;23.336;2023-04-24T02:02:23;25.25;;;10.35;;
10705;SDS011;5404;42.656;23.336;2023-04-24T02:04:49;21.52;;;10.80;;
10705;SDS011;5404;42.656;23.336;2023-04-24T02:07:15;23.23;;;8.98;;
10705;SDS011;5404;42.656;23.336;2023-04-24T02:09:41;17.73;;;10.00;;
10705;SDS011;5404;42.656;23.336;2023-04-24T02:12:06;20.15;;;10.10;;
10705;SDS011;5404;42.656;23.336;2023-04-24T02:14:32;20.60;;;9.80;;
10705;SDS011;5404;42.656;23.336;2023-04-24T02:16:57;18.77;;;10.63;;
10705;SDS011;5404;42.656;23.336;2023-04-24T02:19:25;20.00;;;10.98;;
10705;SDS011;5404;42.656;23.336;2023-04-24T02:21:52;15.27;;;9.57;;
10705;SDS011;5404;42.656;23.336;2023-04-24T02:24:18;21.92;;;10.07;;
10705;SDS011;5404;42.656;23.336;2023-04-24T02:26:43;16.67;;;9.70;;
10705;SDS011;5404;42.656;23.336;2023-04-24T02:29:09;16.20;;;8.85;;
10705;SDS011;5404;42.656;23.336;2023-04-24T02:31:36;20.50;;;10.05;;
10705;SDS011;5404;42.656;23.336;2023-04-24T02:34:01;21.17;;;9.90;;
10705;SDS011;5404;42.656;23.336;2023-04-24T02:36:27;28.35;;;9.88;;
10705;SDS011;5404;42.656;23.336;2023-04-24T02:38:52;16.52;;;10.10;;
10705;SDS011;5404;42.656;23.336;2023-04-24T02:41:19;18.80;;;10.13;;
10705;SDS011;5404;42.656;23.336;2023-04-24T02:43:46;16.95;;;10.95;;
10705;SDS011;5404;42.656;23.336;2023-04-24T02:46:12;21.25;;;10.95;;
10705;SDS011;5404;42.656;23.336;2023-04-24T02:48:37;27.45;;;11.15;;
10705;SDS011;5404;42.656;23.336;2023-04-24T02:51:03;20.50;;;10.88;;
10705;SDS011;5404;42.656;23.336;2023-04-24T02:53:29;18.60;;;10.38;;
10705;SDS011;5404;42.656;23.336;2023-04-24T02:55:55;21.45;;;11.73;;
10705;SDS011;5404;42.656;23.336;2023-04-24T02:58:21;19.50;;;10.93;;
10705;SDS011;5404;42.656;23.336;2023-04-24T03:00:47;19.23;;;11.35;;
10705;SDS011;5404;42.656;23.336;2023-04-24T03:03:12;21.15;;;11.30;;
10705;SDS011;5404;42.656;23.336;2023-04-24T03:05:38;22.65;;;11.05;;
10705;SDS011;5404;42.656;23.336;2023-04-24T03:08:03;16.98;;;11.57;;
10705;SDS011;5404;42.656;23.336;2023-04-24T03:10:29;26.60;;;11.27;;
10705;SDS011;5404;42.656;23.336;2023-04-24T03:12:55;23.42;;;11.73;;
10705;SDS011;5404;42.656;23.336;2023-04-24T03:15:20;22.50;;;13.23;;
10705;SDS011;5404;42.656;23.336;2023-04-24T03:17:46;23.85;;;13.30;;
10705;SDS011;5404;42.656;23.336;2023-04-24T03:20:11;45.85;;;13.98;;
10705;SDS011;5404;42.656;23.336;2023-04-24T03:22:37;23.27;;;14.10;;
10705;SDS011;5404;42.656;23.336;2023-04-24T03:25:03;28.08;;;15.02;;
10705;SDS011;5404;42.656;23.336;2023-04-24T03:27:29;27.80;;;14.48;;
10705;SDS011;5404;42.656;23.336;2023-04-24T03:29:55;21.15;;;13.55;;
10705;SDS011;5404;42.656;23.336;2023-04-24T03:32:21;25.52;;;12.70;;
10705;SDS011;5404;42.656;23.336;2023-04-24T03:34:49;21.77;;;12.65;;
10705;SDS011;5404;42.656;23.336;2023-04-24T03:37:15;26.73;;;14.65;;
10705;SDS011;5404;42.656;23.336;2023-04-24T03:39:42;25.58;;;14.07;;
10705;SDS011;5404;42.656;23.336;2023-04-24T03:42:08;23.33;;;13.80;;
10705;SDS011;5404;42.656;23.336;2023-04-24T03:44:34;24.05;;;15.27;;
10705;SDS011;5404;42.656;23.336;2023-04-24T03:47:01;27.80;;;12.90;;
10705;SDS011;5404;42.656;23.336;2023-04-24T03:49:27;26.98;;;14.10;;
10705;SDS011;5404;42.656;23.336;2023-04-24T03:51:55;24.00;;;14.93;;
10705;SDS011;5404;42.656;23.336;2023-04-24T03:54:20;29.27;;;14.68;;
10705;SDS011;5404;42.656;23.336;2023-04-24T03:56:46;24.88;;;15.77;;
10705;SDS011;5404;42.656;23.336;2023-04-24T03:59:11;21.95;;;14.32;;
10705;SDS011;5404;42.656;23.336;2023-04-24T04:01:38;45.13;;;15.50;;
10705;SDS011;5404;42.656;23.336;2023-04-24T04:04:04;27.10;;;15.02;;
10705;SDS011;5404;42.656;23.336;2023-04-24T04:06:30;23.85;;;14.13;;
10705;SDS011;5404;42.656;23.336;2023-04-24T04:08:56;25.70;;;13.15;;
10705;SDS011;5404;42.656;23.336;2023-04-24T04:11:21;34.22;;;14.25;;
10705;SDS011;5404;42.656;23.336;2023-04-24T04:13:47;26.50;;;14.15;;
10705;SDS011;5404;42.656;23.336;2023-04-24T04:16:13;25.88;;;14.00;;
10705;SDS011;5404;42.656;23.336;2023-04-24T04:18:40;26.52;;;13.02;;
10705;SDS011;5404;42.656;23.336;2023-04-24T04:21:05;24.63;;;12.98;;
10705;SDS011;5404;42.656;23.336;2023-04-24T04:23:31;26.48;;;13.18;;
10705;SDS011;5404;42.656;23.336;2023-04-24T04:25:58;23.00;;;12.52;;
10705;SDS011;5404;42.656;23.336;2023-04-24T04:28:23;26.00;;;12.80;;
10705;SDS011;5404;42.656;23.336;2023-04-24T04:30:49;26.90;;;12.68;;
10705;SDS011;5404;42.656;23.336;2023-04-24T04:33:20;35.05;;;14.40;;
10705;SDS011;5404;42.656;23.336;2023-04-24T04:35:48;30.38;;;14.73;;
10705;SDS011;5404;42.656;23.336;2023-04-24T04:38:14;28.75;;;12.70;;
10705;SDS011;5404;42.656;23.336;2023-04-24T04:40:43;25.13;;;12.02;;
10705;SDS011;5404;42.656;23.336;2023-04-24T04:43:11;15.05;;;9.35;;
10705;SDS011;5404;42.656;23.336;2023-04-24T04:45:38;18.58;;;9.02;;
10705;SDS011;5404;42.656;23.336;2023-04-24T04:48:06;16.07;;;8.60;;
10705;SDS011;5404;42.656;23.336;2023-04-24T04:50:33;16.98;;;8.88;;
10705;SDS011;5404;42.656;23.336;2023-04-24T04:53:01;22.38;;;9.77;;
10705;SDS011;5404;42.656;23.336;2023-04-24T04:55:28;18.20;;;9.50;;
10705;SDS011;5404;42.656;23.336;2023-04-24T04:57:55;20.10;;;9.18;;
10705;SDS011;5404;42.656;23.336;2023-04-24T05:00:22;16.58;;;8.40;;
10705;SDS011;5404;42.656;23.336;2023-04-24T05:02:50;17.48;;;8.85;;
10705;SDS011;5404;42.656;23.336;2023-04-24T05:05:16;19.95;;;8.27;;
10705;SDS011;5404;42.656;23.336;2023-04-24T05:07:42;25.00;;;7.90;;
10705;SDS011;5404;42.656;23.336;2023-04-24T05:10:09;16.60;;;7.57;;
10705;SDS011;5404;42.656;23.336;2023-04-24T05:12:34;13.27;;;6.97;;
10705;SDS011;5404;42.656;23.336;2023-04-24T05:15:01;19.10;;;7.68;;
10705;SDS011;5404;42.656;23.336;2023-04-24T05:17:27;22.70;;;6.97;;
10705;SDS011;5404;42.656;23.336;2023-04-24T05:19:53;17.95;;;7.40;;
10705;SDS011;5404;42.656;23.336;2023-04-24T05:22:18;16.42;;;7.53;;
10705;SDS011;5404;42.656;23.336;2023-04-24T05:24:45;12.38;;;6.65;;
10705;SDS011;5404;42.656;23.336;2023-04-24T05:27:11;27.02;;;7.03;;
10705;SDS011;5404;42.656;23.336;2023-04-24T05:29:37;19.70;;;7.45;;
10705;SDS011;5404;42.656;23.336;2023-04-24T05:32:03;12.27;;;6.38;;
10705;SDS011;5404;42.656;23.336;2023-04-24T05:34:28;22.05;;;7.28;;
10705;SDS011;5404;42.656;23.336;2023-04-24T05:36:53;17.60;;;6.88;;
10705;SDS011;5404;42.656;23.336;2023-04-24T05:39:22;25.63;;;7.50;;
10705;SDS011;5404;42.656;23.336;2023-04-24T05:41:47;14.53;;;6.87;;
10705;SDS011;5404;42.656;23.336;2023-04-24T05:44:13;22.17;;;7.20;;
10705;SDS011;5404;42.656;23.336;2023-04-24T05:46:39;27.70;;;7.10;;
10705;SDS011;5404;42.656;23.336;2023-04-24T05:49:05;16.30;;;7.38;;
10705;SDS011;5404;42.656;23.336;2023-04-24T05:51:32;17.23;;;8.00;;
10705;SDS011;5404;42.656;23.336;2023-04-24T05:53:57;11.27;;;6.32;;
10705;SDS011;5404;42.656;23.336;2023-04-24T05:56:23;16.05;;;7.22;;
10705;SDS011;5404;42.656;23.336;2023-04-24T05:58:49;13.52;;;7.88;;
10705;SDS011;5404;42.656;23.336;2023-04-24T06:01:14;11.95;;;6.90;;
10705;SDS011;5404;42.656;23.336;2023-04-24T06:03:40;17.02;;;6.90;;
10705;SDS011;5404;42.656;23.336;2023-04-24T06:06:06;11.20;;;8.02;;
10705;SDS011;5404;42.656;23.336;2023-04-24T06:08:32;13.75;;;7.43;;
10705;SDS011;5404;42.656;23.336;2023-04-24T06:10:58;16.63;;;7.80;;
10705;SDS011;5404;42.656;23.336;2023-04-24T06:13:24;15.65;;;7.10;;
10705;SDS011;5404;42.656;23.336;2023-04-24T06:15:49;12.15;;;7.65;;
10705;SDS011;5404;42.656;23.336;2023-04-24T06:18:17;17.33;;;7.18;;
10705;SDS011;5404;42.656;23.336;2023-04-24T06:20:43;17.58;;;7.47;;
10705;SDS011;5404;42.656;23.336;2023-04-24T06:23:08;15.00;;;6.57;;
10705;SDS011;5404;42.656;23.336;2023-04-24T06:25:34;13.95;;;7.88;;
10705;SDS011;5404;42.656;23.336;2023-04-24T06:28:01;19.50;;;7.22;;
10705;SDS011;5404;42.656;23.336;2023-04-24T06:30:27;17.85;;;6.88;;
10705;SDS011;5404;42.656;23.336;2023-04-24T06:32:53;15.93;;;7.25;;
10705;SDS011;5404;42.656;23.336;2023-04-24T06:35:18;12.98;;;7.68;;
10705;SDS011;5404;42.656;23.336;2023-04-24T06:37:45;14.18;;;7.28;;
10705;SDS011;5404;42.656;23.336;2023-04-24T06:40:11;15.50;;;7.38;;
10705;SDS011;5404;42.656;23.336;2023-04-24T06:42:36;13.50;;;8.10;;
10705;SDS011;5404;42.656;23.336;2023-04-24T06:45:02;21.13;;;9.10;;
10705;SDS011;5404;42.656;23.336;2023-04-24T06:47:28;21.73;;;8.05;;
10705;SDS011;5404;42.656;23.336;2023-04-24T06:49:54;19.63;;;8.43;;
10705;SDS011;5404;42.656;23.336;2023-04-24T06:52:20;24.38;;;8.63;;
10705;SDS011;5404;42.656;23.336;2023-04-24T06:54:46;21.15;;;9.30;;
10705;SDS011;5404;42.656;23.336;2023-04-24T06:57:13;21.98;;;10.25;;
10705;SDS011;5404;42.656;23.336;2023-04-24T06:59:39;17.50;;;9.68;;
10705;SDS011;5404;42.656;23.336;2023-04-24T07:02:04;23.38;;;9.60;;
10705;SDS011;5404;42.656;23.336;2023-04-24T07:04:30;22.23;;;9.85;;
10705;SDS011;5404;42.656;23.336;2023-04-24T07:06:55;21.80;;;9.50;;
10705;SDS011;5404;42.656;23.336;2023-04-24T07:09:23;19.45;;;9.85;;
10705;SDS011;5404;42.656;23.336;2023-04-24T07:11:53;25.02;;;9.35;;
10705;SDS011;5404;42.656;23.336;2023-04-24T07:14:19;20.58;;;9.90;;
10705;SDS011;5404;42.656;23.336;2023-04-24T07:16:46;28.17;;;10.18;;
10705;SDS011;5404;42.656;23.336;2023-04-24T07:19:12;20.63;;;9.55;;
10705;SDS011;5404;42.656;23.336;2023-04-24T07:21:38;20.30;;;10.63;;
10705;SDS011;5404;42.656;23.336;2023-04-24T07:24:04;19.30;;;8.40;;
10705;SDS011;5404;42.656;23.336;2023-04-24T07:26:29;17.23;;;9.32;;
10705;SDS011;5404;42.656;23.336;2023-04-24T07:28:56;13.50;;;8.43;;
10705;SDS011;5404;42.656;23.336;2023-04-24T07:31:21;24.67;;;8.13;;
10705;SDS011;5404;42.656;23.336;2023-04-24T07:33:47;20.10;;;8.65;;
10705;SDS011;5404;42.656;23.336;2023-04-24T07:36:13;22.45;;;9.35;;
10705;SDS011;5404;42.656;23.336;2023-04-24T07:38:43;15.07;;;7.75;;
10705;SDS011;5404;42.656;23.336;2023-04-24T07:41:12;16.67;;;9.13;;
10705;SDS011;5404;42.656;23.336;2023-04-24T07:43:38;15.77;;;8.32;;
10705;SDS011;5404;42.656;23.336;2023-04-24T07:46:04;10.30;;;7.05;;
10705;SDS011;5404;42.656;23.336;2023-04-24T07:48:31;15.52;;;7.63;;
10705;SDS011;5404;42.656;23.336;2023-04-24T07:50:56;12.73;;;7.38;;
10705;SDS011;5404;42.656;23.336;2023-04-24T07:53:22;18.33;;;7.68;;
10705;SDS011;5404;42.656;23.336;2023-04-24T07:55:49;16.92;;;7.72;;
10705;SDS011;5404;42.656;23.336;2023-04-24T07:58:15;17.75;;;8.32;;
10705;SDS011;5404;42.656;23.336;2023-04-24T08:00:41;22.15;;;9.05;;
10705;SDS011;5404;42.656;23.336;2023-04-24T08:03:06;11.77;;;8.15;;
10705;SDS011;5404;42.656;23.336;2023-04-24T08:05:32;16.48;;;8.13;;
10705;SDS011;5404;42.656;23.336;2023-04-24T08:07:57;17.60;;;8.07;;
10705;SDS011;5404;42.656;23.336;2023-04-24T08:10:23;15.10;;;7.13;;
10705;SDS011;5404;42.656;23.336;2023-04-24T08:12:49;12.65;;;7.70;;
10705;SDS011;5404;42.656;23.336;2023-04-24T08:15:15;17.45;;;8.10;;
10705;SDS011;5404;42.656;23.336;2023-04-24T08:17:40;24.75;;;8.27;;
10705;SDS011;5404;42.656;23.336;2023-04-24T08:20:08;16.38;;;7.55;;
10705;SDS011;5404;42.656;23.336;2023-04-24T08:22:40;14.38;;;7.78;;
10705;SDS011;5404;42.656;23.336;2023-04-24T08:25:06;12.25;;;8.15;;
10705;SDS011;5404;42.656;23.336;2023-04-24T08:27:32;12.65;;;7.47;;
10705;SDS011;5404;42.656;23.336;2023-04-24T08:29:58;12.02;;;7.50;;
10705;SDS011;5404;42.656;23.336;2023-04-24T08:32:25;11.82;;;7.07;;
10705;SDS011;5404;42.656;23.336;2023-04-24T08:34:55;18.92;;;7.80;;
10705;SDS011;5404;42.656;23.336;2023-04-24T08:37:22;17.23;;;8.10;;
10705;SDS011;5404;42.656;23.336;2023-04-24T08:42:16;15.15;;;8.20;;
10705;SDS011;5404;42.656;23.336;2023-04-24T08:44:43;13.98;;;6.93;;
10705;SDS011;5404;42.656;23.336;2023-04-24T08:47:09;17.80;;;7.50;;
10705;SDS011;5404;42.656;23.336;2023-04-24T08:49:36;9.95;;;7.25;;
10705;SDS011;5404;42.656;23.336;2023-04-24T08:52:02;15.73;;;7.13;;
10705;SDS011;5404;42.656;23.336;2023-04-24T08:54:29;10.98;;;6.90;;
10705;SDS011;5404;42.656;23.336;2023-04-24T08:56:59;13.93;;;6.88;;
10705;SDS011;5404;42.656;23.336;2023-04-24T08:59:36;15.90;;;7.55;;
10705;SDS011;5404;42.656;23.336;2023-04-24T09:02:03;19.55;;;8.32;;
10705;SDS011;5404;42.656;23.336;2023-04-24T09:04:30;11.80;;;7.07;;
10705;SDS011;5404;42.656;23.336;2023-04-24T09:06:57;11.30;;;6.72;;
10705;SDS011;5404;42.656;23.336;2023-04-24T09:09:24;17.38;;;7.28;;
10705;SDS011;5404;42.656;23.336;2023-04-24T09:11:50;12.82;;;6.95;;
10705;SDS011;5404;42.656;23.336;2023-04-24T09:14:18;14.57;;;6.93;;
10705;SDS011;5404;42.656;23.336;2023-04-24T09:16:44;31.60;;;7.00;;
10705;SDS011;5404;42.656;23.336;2023-04-24T09:19:10;14.48;;;6.22;;
10705;SDS011;5404;42.656;23.336;2023-04-24T09:21:36;14.43;;;6.07;;
10705;SDS011;5404;42.656;23.336;2023-04-24T09:24:05;13.30;;;6.03;;
10705;SDS011;5404;42.656;23.336;2023-04-24T09:26:34;14.25;;;5.80;;
10705;SDS011;5404;42.656;23.336;2023-04-24T09:29:01;12.55;;;5.70;;
10705;SDS011;5404;42.656;23.336;2023-04-24T09:31:29;8.88;;;5.47;;
10705;SDS011;5404;42.656;23.336;2023-04-24T09:34:01;14.70;;;5.88;;
10705;SDS011;5404;42.656;23.336;2023-04-24T09:36:33;24.03;;;6.13;;
10705;SDS011;5404;42.656;23.336;2023-04-24T09:39:11;16.77;;;5.97;;
10705;SDS011;5404;42.656;23.336;2023-04-24T09:41:53;16.30;;;9.57;;
10705;SDS011;5404;42.656;23.336;2023-04-24T09:44:27;13.88;;;5.90;;
10705;SDS011;5404;42.656;23.336;2023-04-24T09:46:57;12.95;;;6.18;;
10705;SDS011;5404;42.656;23.336;2023-04-24T09:51:50;11.13;;;5.97;;
10705;SDS011;5404;42.656;23.336;2023-04-24T09:54:19;11.65;;;5.70;;
10705;SDS011;5404;42.656;23.336;2023-04-24T09:56:47;12.50;;;5.00;;
10705;SDS011;5404;42.656;23.336;2023-04-24T09:59:14;8.38;;;4.75;;
10705;SDS011;5404;42.656;23.336;2023-04-24T10:01:44;14.27;;;5.68;;
10705;SDS011;5404;42.656;23.336;2023-04-24T10:06:46;16.30;;;5.40;;
10705;SDS011;5404;42.656;23.336;2023-04-24T10:09:14;8.70;;;4.88;;
10705;SDS011;5404;42.656;23.336;2023-04-24T10:11:41;6.78;;;4.70;;
10705;SDS011;5404;42.656;23.336;2023-04-24T10:14:09;13.57;;;4.67;;
10705;SDS011;5404;42.656;23.336;2023-04-24T10:16:37;9.77;;;4.78;;
10705;SDS011;5404;42.656;23.336;2023-04-24T10:19:05;12.40;;;5.23;;
10705;SDS011;5404;42.656;23.336;2023-04-24T10:21:32;11.40;;;4.35;;
10705;SDS011;5404;42.656;23.336;2023-04-24T10:23:57;17.02;;;5.07;;
10705;SDS011;5404;42.656;23.336;2023-04-24T10:26:25;8.55;;;4.50;;
10705;SDS011;5404;42.656;23.336;2023-04-24T10:28:52;12.75;;;4.60;;
10705;SDS011;5404;42.656;23.336;2023-04-24T10:31:19;8.60;;;4.35;;
10705;SDS011;5404;42.656;23.336;2023-04-24T10:33:46;7.47;;;4.43;;
10705;SDS011;5404;42.656;23.336;2023-04-24T10:36:13;8.75;;;5.00;;
10705;SDS011;5404;42.656;23.336;2023-04-24T10:41:11;11.48;;;3.65;;
10705;SDS011;5404;42.656;23.336;2023-04-24T10:43:44;15.45;;;5.78;;
10705;SDS011;5404;42.656;23.336;2023-04-24T10:46:16;13.40;;;4.50;;
10705;SDS011;5404;42.656;23.336;2023-04-24T10:48:51;57.70;;;28.13;;
10705;SDS011;5404;42.656;23.336;2023-04-24T10:51:21;9.93;;;6.07;;
10705;SDS011;5404;42.656;23.336;2023-04-24T10:53:51;13.48;;;4.85;;
10705;SDS011;5404;42.656;23.336;2023-04-24T10:56:18;7.93;;;4.32;;
10705;SDS011;5404;42.656;23.336;2023-04-24T10:58:49;9.23;;;4.35;;
10705;SDS011;5404;42.656;23.336;2023-04-24T11:01:29;9.40;;;4.43;;
10705;SDS011;5404;42.656;23.336;2023-04-24T11:04:01;11.48;;;4.05;;
10705;SDS011;5404;42.656;23.336;2023-04-24T11:06:34;6.75;;;4.15;;
10705;SDS011;5404;42.656;23.336;2023-04-24T11:09:05;9.75;;;3.72;;
10705;SDS011;5404;42.656;23.336;2023-04-24T11:11:32;5.20;;;4.13;;
10705;SDS011;5404;42.656;23.336;2023-04-24T11:22:05;10.20;;;5.38;;
10705;SDS011;5404;42.656;23.336;2023-04-24T11:24:31;17.50;;;4.70;;
10705;SDS011;5404;42.656;23.336;2023-04-24T11:27:20;12.93;;;4.75;;
10705;SDS011;5404;42.656;23.336;2023-04-24T11:32:33;25.85;;;4.63;;
10705;SDS011;5404;42.656;23.336;2023-04-24T11:37:47;13.10;;;3.67;;
10705;SDS011;5404;42.656;23.336;2023-04-24T11:40:18;9.20;;;3.53;;
10705;SDS011;5404;42.656;23.336;2023-04-24T11:42:51;6.82;;;3.40;;
10705;SDS011;5404;42.656;23.336;2023-04-24T11:45:18;6.53;;;3.38;;
10705;SDS011;5404;42.656;23.336;2023-04-24T11:47:48;6.57;;;3.97;;
10705;SDS011;5404;42.656;23.336;2023-04-24T11:50:15;4.93;;;3.28;;
10705;SDS011;5404;42.656;23.336;2023-04-24T11:52:45;4.60;;;3.73;;
10705;SDS011;5404;42.656;23.336;2023-04-24T11:57:40;4.70;;;3.15;;
10705;SDS011;5404;42.656;23.336;2023-04-24T12:00:15;7.15;;;4.70;;
10705;SDS011;5404;42.656;23.336;2023-04-24T12:02:42;10.07;;;4.72;;
10705;SDS011;5404;42.656;23.336;2023-04-24T12:05:07;8.30;;;5.00;;
10705;SDS011;5404;42.656;23.336;2023-04-24T12:07:40;16.40;;;5.65;;
10705;SDS011;5404;42.656;23.336;2023-04-24T12:10:09;13.40;;;4.80;;
10705;SDS011;5404;42.656;23.336;2023-04-24T12:12:35;16.67;;;5.03;;
10705;SDS011;5404;42.656;23.336;2023-04-24T12:15:00;9.77;;;5.63;;
10705;SDS011;5404;42.656;23.336;2023-04-24T12:17:32;6.32;;;4.85;;
10705;SDS011;5404;42.656;23.336;2023-04-24T12:20:04;8.63;;;4.97;;
10705;SDS011;5404;42.656;23.336;2023-04-24T12:22:49;9.00;;;4.35;;
10705;SDS011;5404;42.656;23.336;2023-04-24T12:25:18;12.57;;;7.30;;
10705;SDS011;5404;42.656;23.336;2023-04-24T12:27:45;8.45;;;5.80;;
10705;SDS011;5404;42.656;23.336;2023-04-24T12:30:13;3.08;;;2.35;;
10705;SDS011;5404;42.656;23.336;2023-04-24T12:32:42;8.38;;;3.03;;
10705;SDS011;5404;42.656;23.336;2023-04-24T12:35:09;3.23;;;2.93;;
10705;SDS011;5404;42.656;23.336;2023-04-24T12:37:38;6.47;;;3.83;;
10705;SDS011;5404;42.656;23.336;2023-04-24T12:40:11;11.98;;;4.28;;
10705;SDS011;5404;42.656;23.336;2023-04-24T12:42:50;4.80;;;3.58;;
10705;SDS011;5404;42.656;23.336;2023-04-24T12:45:17;7.53;;;3.67;;
10705;SDS011;5404;42.656;23.336;2023-04-24T12:47:43;4.45;;;3.60;;
10705;SDS011;5404;42.656;23.336;2023-04-24T12:50:13;6.70;;;3.90;;
10705;SDS011;5404;42.656;23.336;2023-04-24T12:52:40;7.28;;;3.33;;
10705;SDS011;5404;42.656;23.336;2023-04-24T12:55:07;5.45;;;4.25;;
10705;SDS011;5404;42.656;23.336;2023-04-24T12:57:34;9.63;;;4.40;;
10705;SDS011;5404;42.656;23.336;2023-04-24T13:00:00;6.90;;;4.50;;
10705;SDS011;5404;42.656;23.336;2023-04-24T13:02:28;8.05;;;4.90;;
10705;SDS011;5404;42.656;23.336;2023-04-24T13:04:56;8.20;;;4.68;;
10705;SDS011;5404;42.656;23.336;2023-04-24T13:07:22;7.57;;;4.00;;
10705;SDS011;5404;42.656;23.336;2023-04-24T13:09:49;14.32;;;4.75;;
10705;SDS011;5404;42.656;23.336;2023-04-24T13:12:16;9.77;;;5.32;;
10705;SDS011;5404;42.656;23.336;2023-04-24T13:14:43;10.13;;;4.95;;
10705;SDS011;5404;42.656;23.336;2023-04-24T13:17:09;10.45;;;4.90;;
10705;SDS011;5404;42.656;23.336;2023-04-24T13:19:37;6.88;;;4.95;;
10705;SDS011;5404;42.656;23.336;2023-04-24T13:22:09;7.40;;;3.92;;
10705;SDS011;5404;42.656;23.336;2023-04-24T13:24:37;9.85;;;5.35;;
10705;SDS011;5404;42.656;23.336;2023-04-24T13:27:04;5.15;;;4.03;;
10705;SDS011;5404;42.656;23.336;2023-04-24T13:29:32;9.07;;;5.25;;
10705;SDS011;5404;42.656;23.336;2023-04-24T13:31:58;7.88;;;4.72;;
10705;SDS011;5404;42.656;23.336;2023-04-24T13:34:26;8.00;;;4.80;;
10705;SDS011;5404;42.656;23.336;2023-04-24T13:36:53;9.52;;;5.28;;
10705;SDS011;5404;42.656;23.336;2023-04-24T13:39:23;10.90;;;4.93;;
10705;SDS011;5404;42.656;23.336;2023-04-24T13:41:51;7.57;;;4.45;;
10705;SDS011;5404;42.656;23.336;2023-04-24T13:44:17;9.07;;;5.00;;
10705;SDS011;5404;42.656;23.336;2023-04-24T13:46:46;9.15;;;4.90;;
10705;SDS011;5404;42.656;23.336;2023-04-24T13:49:13;5.22;;;4.38;;
10705;SDS011;5404;42.656;23.336;2023-04-24T13:53:34;7.82;;;4.25;;
10705;SDS011;5404;42.656;23.336;2023-04-24T13:58:28;6.75;;;4.45;;
10705;SDS011;5404;42.656;23.336;2023-04-24T14:00:54;8.80;;;4.72;;
10705;SDS011;5404;42.656;23.336;2023-04-24T14:03:21;9.07;;;4.55;;
10705;SDS011;5404;42.656;23.336;2023-04-24T14:05:47;7.03;;;4.15;;
10705;SDS011;5404;42.656;23.336;2023-04-24T14:08:12;8.07;;;4.03;;
10705;SDS011;5404;42.656;23.336;2023-04-24T14:10:38;11.43;;;5.50;;
10705;SDS011;5404;42.656;23.336;2023-04-24T14:13:04;6.93;;;4.80;;
10705;SDS011;5404;42.656;23.336;2023-04-24T14:15:30;13.25;;;5.53;;
10705;SDS011;5404;42.656;23.336;2023-04-24T14:17:56;9.18;;;5.13;;
10705;SDS011;5404;42.656;23.336;2023-04-24T14:20:22;11.45;;;4.90;;
10705;SDS011;5404;42.656;23.336;2023-04-24T14:22:48;10.73;;;4.15;;
10705;SDS011;5404;42.656;23.336;2023-04-24T14:25:13;13.88;;;5.43;;
10705;SDS011;5404;42.656;23.336;2023-04-24T14:27:40;4.78;;;3.50;;
10705;SDS011;5404;42.656;23.336;2023-04-24T14:30:06;12.57;;;4.93;;
10705;SDS011;5404;42.656;23.336;2023-04-24T14:32:34;12.70;;;4.45;;
10705;SDS011;5404;42.656;23.336;2023-04-24T14:35:00;11.02;;;4.40;;
10705;SDS011;5404;42.656;23.336;2023-04-24T14:37:25;8.75;;;3.50;;
10705;SDS011;5404;42.656;23.336;2023-04-24T14:39:51;6.18;;;3.72;;
10705;SDS011;5404;42.656;23.336;2023-04-24T14:42:16;9.40;;;4.97;;
10705;SDS011;5404;42.656;23.336;2023-04-24T14:44:42;8.98;;;4.80;;
10705;SDS011;5404;42.656;23.336;2023-04-24T14:47:08;7.70;;;4.53;;
10705;SDS011;5404;42.656;23.336;2023-04-24T14:49:33;10.20;;;4.30;;
10705;SDS011;5404;42.656;23.336;2023-04-24T14:51:59;4.80;;;3.30;;
10705;SDS011;5404;42.656;23.336;2023-04-24T14:54:25;6.20;;;3.13;;
10705;SDS011;5404;42.656;23.336;2023-04-24T14:56:50;8.90;;;4.47;;
10705;SDS011;5404;42.656;23.336;2023-04-24T14:59:17;9.23;;;4.20;;
10705;SDS011;5404;42.656;23.336;2023-04-24T15:01:43;27.38;;;6.05;;